Saint Helena Island, United Kingdom
Current Conditions -  °F | °C
As of 8:50 AM on Monday 20 Oct 2014 (Local Time) from FHAW Reporting Station
Broken Clouds Broken Clouds  
Wind Chill: 23°   Ceiling: 3000
Heat Index: 23°   Visibility: 6mi
Dew Point: 16°   Wind: 13mph
Humidity: 65%   Direction: 120°ESE
Pressure: 29.97"   Gusts: NA
Location:  15.93°S, 5.07°W
Report Text: FHAW 200750Z 12011KT 9999 BKN030 23/16 Q1015 BLU TEMPO -SHRA SCT020WHT
Loading
Personal Weather Stations






























Interactive Weather Map
Tropical Storm Tracking
New forecast layout! Learn more

10-Day Weather Forecast

Advertisements
Track Severe Weather on mobile